Time;durP1;ratioP1;P1;durP2;ratioP2;P2;SDS_P1;SDS_P2;PMS_P1;PMS_P2;Temp;Humidity;BMP_temperature;BMP_pressure;BME280_temperature;BME280_humidity;BME280_pressure;Samples;Min_cycle;Max_cycle;Signal;HPM_P1;HPM_P2
2023/03/04 00:00:04;;;;;;;13.27;3.95;;;7.00;99.90;;;;;;4109867;28;20062;-63
2023/03/04 00:02:05;;;;;;;13.23;3.87;;;7.00;99.90;;;;;;4106453;28;20146;-63
2023/03/04 00:04:06;;;;;;;10.85;4.25;;;7.00;99.90;;;;;;4107015;28;20537;-63
2023/03/04 00:06:07;;;;;;;11.75;4.32;;;7.00;99.90;;;;;;4110070;28;20394;-63
2023/03/04 00:08:07;;;;;;;13.35;4.47;;;7.00;99.90;;;;;;4109179;28;20043;-63
2023/03/04 00:10:09;;;;;;;14.43;4.60;;;7.00;99.90;;;;;;4106892;28;20043;-64
2023/03/04 00:12:09;;;;;;;15.20;5.32;;;7.00;99.90;;;;;;4106937;28;20145;-63
2023/03/04 00:14:10;;;;;;;24.58;7.45;;;7.00;99.90;;;;;;4107822;28;20043;-63
2023/03/04 00:16:10;;;;;;;22.38;8.70;;;7.00;99.90;;;;;;4106148;28;20051;-63
2023/03/04 00:18:11;;;;;;;16.52;6.72;;;7.10;99.90;;;;;;4109174;28;20035;-63
2023/03/04 00:20:13;;;;;;;17.25;5.72;;;7.10;99.90;;;;;;4107468;28;20074;-65
2023/03/04 00:22:13;;;;;;;13.63;4.13;;;7.00;99.90;;;;;;4105811;28;20042;-63
2023/03/04 00:24:14;;;;;;;14.93;3.55;;;7.10;99.90;;;;;;4105820;28;20035;-63
2023/03/04 00:26:15;;;;;;;14.90;3.30;;;7.10;99.90;;;;;;4107603;28;20434;-63
2023/03/04 00:28:16;;;;;;;11.05;3.00;;;7.00;99.90;;;;;;4110200;28;20043;-63
2023/03/04 00:30:17;;;;;;;8.18;2.60;;;7.10;99.90;;;;;;4092825;28;20039;-63
2023/03/04 00:32:17;;;;;;;8.98;2.72;;;7.10;99.90;;;;;;4107765;28;20533;-63
2023/03/04 00:34:18;;;;;;;10.85;3.20;;;7.10;99.90;;;;;;4106540;28;20401;-63
2023/03/04 00:36:19;;;;;;;11.05;2.60;;;7.10;99.90;;;;;;4109817;28;20031;-63
2023/03/04 00:38:19;;;;;;;13.95;3.63;;;7.10;99.90;;;;;;4111500;28;20074;-63
2023/03/04 00:40:20;;;;;;;10.93;2.80;;;7.10;99.90;;;;;;4103725;28;20386;-63
2023/03/04 00:42:20;;;;;;;10.35;2.75;;;7.20;99.90;;;;;;4108284;28;20046;-63
2023/03/04 00:44:21;;;;;;;9.70;2.88;;;7.10;99.90;;;;;;4106015;28;20054;-63
2023/03/04 00:46:22;;;;;;;15.15;3.10;;;7.20;99.90;;;;;;4109022;28;20034;-63
2023/03/04 00:48:22;;;;;;;14.63;3.15;;;7.10;99.90;;;;;;4114151;28;20043;-63
2023/03/04 00:50:23;;;;;;;14.40;3.13;;;7.10;99.90;;;;;;4111058;28;20074;-63
2023/03/04 00:52:24;;;;;;;15.57;3.20;;;7.10;99.90;;;;;;4110050;28;20043;-63
2023/03/04 00:54:24;;;;;;;14.93;3.10;;;7.10;99.90;;;;;;4111668;28;20062;-64
2023/03/04 00:56:25;;;;;;;14.02;3.00;;;7.10;99.90;;;;;;4113220;28;20125;-63
2023/03/04 00:58:25;;;;;;;12.68;2.83;;;7.10;99.90;;;;;;4115566;28;20481;-63
2023/03/04 01:00:26;;;;;;;11.70;3.70;;;7.10;99.90;;;;;;4112242;28;20047;-63
2023/03/04 01:02:26;;;;;;;15.63;3.50;;;7.10;99.90;;;;;;4108116;28;20035;-63
2023/03/04 01:04:27;;;;;;;11.50;2.85;;;7.00;99.90;;;;;;4108658;28;20091;-63
2023/03/04 01:06:28;;;;;;;13.15;2.92;;;7.00;99.90;;;;;;4110802;28;20088;-63
2023/03/04 01:08:28;;;;;;;12.73;2.80;;;7.00;99.90;;;;;;4112481;28;20035;-63
2023/03/04 01:10:29;;;;;;;12.18;2.88;;;7.00;99.90;;;;;;4110347;28;21293;-63
2023/03/04 01:12:29;;;;;;;12.35;2.53;;;7.00;99.90;;;;;;4109708;28;20027;-63
2023/03/04 01:14:30;;;;;;;14.02;2.65;;;6.90;99.90;;;;;;4110729;28;20043;-63
2023/03/04 01:16:30;;;;;;;7.85;2.60;;;7.00;99.90;;;;;;4108976;28;20046;-63
2023/03/04 01:18:31;;;;;;;12.43;2.53;;;7.00;99.90;;;;;;4111138;28;20034;-63
2023/03/04 01:20:32;;;;;;;12.13;2.80;;;7.00;99.90;;;;;;4112361;28;20450;-63
2023/03/04 01:22:33;;;;;;;11.73;2.80;;;7.00;99.90;;;;;;4111957;28;20034;-63
2023/03/04 01:24:33;;;;;;;10.93;2.60;;;7.00;99.90;;;;;;4117950;28;20366;-63
2023/03/04 01:26:34;;;;;;;11.82;2.88;;;7.00;99.90;;;;;;4121040;28;20105;-63
2023/03/04 01:28:34;;;;;;;12.75;2.85;;;7.00;99.90;;;;;;4117404;28;20401;-63
2023/03/04 01:30:35;;;;;;;13.10;3.08;;;7.00;99.90;;;;;;4111123;28;20041;-64
2023/03/04 01:32:36;;;;;;;15.43;3.08;;;7.00;99.90;;;;;;4115784;28;20041;-63
2023/03/04 01:34:36;;;;;;;9.50;2.10;;;6.90;99.90;;;;;;4113455;28;20386;-63
2023/03/04 01:36:37;;;;;;;14.98;3.35;;;6.90;99.90;;;;;;4115837;28;20047;-63
2023/03/04 01:38:37;;;;;;;18.88;3.45;;;7.00;99.90;;;;;;4117547;28;20039;-63
2023/03/04 01:40:38;;;;;;;15.73;3.13;;;6.90;99.90;;;;;;4112540;28;20465;-63
2023/03/04 01:42:39;;;;;;;18.23;3.83;;;6.90;99.90;;;;;;4111500;28;20465;-63
2023/03/04 01:44:40;;;;;;;14.98;3.58;;;6.90;99.90;;;;;;4112941;28;20039;-63
2023/03/04 01:46:48;;;;;;;10.45;2.92;;;6.90;99.90;;;;;;4110858;28;20047;-63
2023/03/04 01:48:49;;;;;;;15.00;3.38;;;6.90;99.90;;;;;;4117923;28;20043;-63
2023/03/04 01:50:50;;;;;;;16.67;3.13;;;6.80;99.90;;;;;;4112839;28;20043;-63
2023/03/04 01:52:50;;;;;;;17.63;4.00;;;6.90;99.90;;;;;;4114100;28;20031;-63
2023/03/04 01:54:51;;;;;;;15.65;3.22;;;6.80;99.90;;;;;;4104862;28;20035;-63
2023/03/04 01:56:52;;;;;;;11.25;2.42;;;6.80;99.90;;;;;;4117157;28;20085;-63
2023/03/04 01:59:13;;;;;;;15.57;3.45;;;6.80;99.90;;;;;;4109868;28;20099;-64
2023/03/04 02:01:13;;;;;;;12.35;3.03;;;6.80;99.90;;;;;;4109009;28;20035;-63
2023/03/04 02:03:18;;;;;;;16.65;3.42;;;6.70;99.90;;;;;;4111166;28;20181;-63
2023/03/04 02:05:21;;;;;;;16.60;3.47;;;6.70;99.90;;;;;;4106746;28;20077;-63
2023/03/04 02:07:21;;;;;;;11.30;2.83;;;6.70;99.90;;;;;;4123978;28;20435;-63
2023/03/04 02:09:22;;;;;;;15.95;2.63;;;6.70;99.90;;;;;;4128023;28;20089;-64
2023/03/04 02:11:23;;;;;;;15.68;3.28;;;6.80;99.90;;;;;;4112451;28;20035;-63
2023/03/04 02:13:24;;;;;;;11.88;2.70;;;6.80;99.90;;;;;;4111907;28;20041;-63
2023/03/04 02:15:24;;;;;;;13.30;3.08;;;6.80;99.90;;;;;;4112241;28;20061;-63
2023/03/04 02:17:27;;;;;;;14.25;3.13;;;6.80;99.90;;;;;;4124921;28;20049;-63
2023/03/04 02:19:49;;;;;;;10.68;3.00;;;6.80;99.90;;;;;;4118660;28;20061;-63
2023/03/04 02:21:49;;;;;;;10.88;2.75;;;6.80;99.90;;;;;;4114924;28;20031;-63
2023/03/04 02:24:05;;;;;;;14.07;2.97;;;6.80;99.90;;;;;;4112010;28;20046;-63
2023/03/04 02:26:13;;;;;;;12.75;2.55;;;6.90;99.90;;;;;;4113173;28;20038;-64
2023/03/04 02:28:14;;;;;;;17.95;3.13;;;6.80;99.90;;;;;;4110384;28;20481;-63
2023/03/04 02:30:20;;;;;;;11.25;2.15;;;6.90;99.90;;;;;;4112714;28;20034;-63
2023/03/04 02:32:21;;;;;;;13.65;2.75;;;6.90;99.90;;;;;;4117982;28;20098;-63
2023/03/04 02:34:26;;;;;;;6.53;2.17;;;6.90;99.90;;;;;;4112794;28;20339;-63
2023/03/04 02:36:28;;;;;;;14.95;3.47;;;6.90;99.90;;;;;;4110849;28;20102;-63
2023/03/04 02:38:28;;;;;;;16.80;3.65;;;6.90;99.90;;;;;;4112797;28;20096;-63
2023/03/04 02:40:32;;;;;;;12.95;2.53;;;6.90;99.90;;;;;;4111369;28;20046;-64
2023/03/04 02:42:32;;;;;;;8.55;2.10;;;6.90;99.90;;;;;;4111485;28;20524;-63
2023/03/04 02:44:36;;;;;;;13.10;2.92;;;6.90;99.90;;;;;;4115420;28;20061;-63
2023/03/04 02:46:36;;;;;;;17.38;2.83;;;6.90;99.90;;;;;;4120432;28;20102;-63
2023/03/04 02:48:37;;;;;;;14.30;2.95;;;6.90;99.90;;;;;;4115195;28;20579;-63
2023/03/04 02:50:44;;;;;;;10.10;3.05;;;6.90;99.90;;;;;;4109812;28;20481;-63
2023/03/04 02:52:45;;;;;;;19.70;3.28;;;6.90;99.90;;;;;;4116686;28;20042;-63
2023/03/04 02:54:46;;;;;;;12.98;2.78;;;6.80;99.90;;;;;;4119199;28;20493;-63
2023/03/04 02:56:49;;;;;;;10.82;2.47;;;6.80;99.90;;;;;;4113136;28;20039;-63
2023/03/04 02:58:50;;;;;;;11.68;2.88;;;6.80;99.90;;;;;;4110448;28;20134;-63
2023/03/04 03:00:50;;;;;;;16.70;3.33;;;6.90;99.90;;;;;;4112336;28;20035;-63
2023/03/04 03:02:51;;;;;;;20.17;3.25;;;6.80;99.90;;;;;;4119362;28;20118;-63
2023/03/04 03:04:51;;;;;;;13.27;2.90;;;6.70;99.90;;;;;;4112784;28;20051;-63
2023/03/04 03:06:52;;;;;;;14.75;3.00;;;6.80;99.90;;;;;;4112520;28;20061;-63
2023/03/04 03:08:53;;;;;;;10.75;2.28;;;6.80;99.90;;;;;;4113786;28;20062;-65
2023/03/04 03:10:53;;;;;;;14.40;2.90;;;6.80;99.90;;;;;;4104965;28;20047;-64
2023/03/04 03:12:54;;;;;;;14.40;2.88;;;6.80;99.90;;;;;;4108601;28;20039;-64
2023/03/04 03:14:55;;;;;;;15.13;2.40;;;6.80;99.90;;;;;;4110441;28;20034;-63
2023/03/04 03:16:56;;;;;;;14.65;3.25;;;6.80;99.90;;;;;;4117935;28;20047;-65
2023/03/04 03:18:56;;;;;;;12.20;2.65;;;6.80;99.90;;;;;;4111697;28;20400;-63
2023/03/04 03:20:57;;;;;;;11.40;2.28;;;6.80;99.90;;;;;;4106331;28;20039;-63
2023/03/04 03:22:57;;;;;;;11.43;2.58;;;6.80;99.90;;;;;;4111493;28;20034;-63
2023/03/04 03:24:58;;;;;;;7.05;2.10;;;6.80;99.90;;;;;;4108180;28;20478;-63
2023/03/04 03:26:59;;;;;;;13.18;2.63;;;6.80;99.90;;;;;;4111316;28;20556;-63
2023/03/04 03:28:59;;;;;;;9.85;2.17;;;6.80;99.90;;;;;;4111286;28;20046;-63
2023/03/04 03:31:00;;;;;;;22.85;2.55;;;6.80;99.90;;;;;;4107189;28;20035;-63
2023/03/04 03:33:01;;;;;;;11.68;2.60;;;6.80;99.90;;;;;;4110744;28;20038;-63
2023/03/04 03:35:01;;;;;;;13.02;2.40;;;6.80;99.90;;;;;;4109026;28;20035;-63
2023/03/04 03:37:02;;;;;;;10.57;2.42;;;6.80;99.90;;;;;;4117824;28;20039;-63
2023/03/04 03:39:02;;;;;;;13.70;2.95;;;6.80;99.90;;;;;;4113146;28;20058;-63
2023/03/04 03:41:03;;;;;;;15.52;3.28;;;6.80;99.90;;;;;;4118610;28;20043;-63
2023/03/04 03:43:04;;;;;;;14.20;3.30;;;6.80;99.90;;;;;;4112288;28;20126;-63
2023/03/04 03:45:05;;;;;;;9.27;2.55;;;6.70;99.90;;;;;;4108233;28;20042;-63
2023/03/04 03:47:06;;;;;;;23.80;3.55;;;6.80;99.90;;;;;;4115441;28;20517;-63
2023/03/04 03:49:06;;;;;;;15.35;2.63;;;6.70;99.90;;;;;;4116284;28;20039;-65
2023/03/04 03:51:07;;;;;;;11.70;2.60;;;6.70;99.90;;;;;;4111353;28;20035;-64
2023/03/04 03:53:07;;;;;;;11.55;2.80;;;6.70;99.90;;;;;;4110778;28;20484;-63
2023/03/04 03:55:08;;;;;;;11.68;2.65;;;6.70;99.90;;;;;;4109977;28;20537;-64
2023/03/04 03:57:09;;;;;;;14.52;2.53;;;6.70;99.90;;;;;;4118970;28;20062;-63
2023/03/04 03:59:09;;;;;;;12.20;2.75;;;6.70;99.90;;;;;;4117771;28;20126;-63
2023/03/04 04:01:10;;;;;;;12.65;2.25;;;6.70;99.90;;;;;;4115965;28;20034;-63
2023/03/04 04:03:14;;;;;;;9.65;2.47;;;6.70;99.90;;;;;;4111573;28;20050;-63
2023/03/04 04:05:15;;;;;;;14.93;2.65;;;6.70;99.90;;;;;;4101241;28;20074;-63
2023/03/04 04:07:15;;;;;;;13.60;2.97;;;6.70;99.90;;;;;;4103486;28;20039;-63
2023/03/04 04:09:16;;;;;;;8.02;1.77;;;6.70;99.90;;;;;;4124433;28;20034;-63
2023/03/04 04:11:17;;;;;;;10.40;2.03;;;6.70;99.90;;;;;;4126920;28;20034;-63
2023/03/04 04:13:18;;;;;;;8.85;1.67;;;6.70;99.90;;;;;;4111019;28;20042;-63
2023/03/04 04:15:18;;;;;;;9.95;2.28;;;6.70;99.90;;;;;;4117624;28;20086;-63
2023/03/04 04:17:19;;;;;;;11.65;2.20;;;6.70;99.90;;;;;;4119923;28;20041;-63
2023/03/04 04:19:20;;;;;;;10.65;2.40;;;6.70;99.90;;;;;;4111733;28;20045;-63
2023/03/04 04:21:21;;;;;;;6.82;1.92;;;6.70;99.90;;;;;;4110963;28;20081;-63
2023/03/04 04:23:21;;;;;;;12.77;1.98;;;6.70;99.90;;;;;;4118132;28;20039;-63
2023/03/04 04:25:22;;;;;;;8.18;2.25;;;6.70;99.90;;;;;;4110632;28;20533;-63
2023/03/04 04:27:23;;;;;;;19.23;3.15;;;6.70;99.90;;;;;;4116497;28;20089;-63
2023/03/04 04:29:23;;;;;;;11.90;2.47;;;6.70;99.90;;;;;;4110140;28;20082;-63
2023/03/04 04:31:24;;;;;;;8.35;2.00;;;6.70;99.90;;;;;;4108479;28;20027;-64
2023/03/04 04:33:25;;;;;;;8.23;2.00;;;6.70;99.90;;;;;;4110763;28;20552;-64
2023/03/04 04:35:26;;;;;;;9.57;2.28;;;6.60;99.90;;;;;;4110035;28;20426;-64
2023/03/04 04:37:27;;;;;;;15.20;2.63;;;6.70;99.90;;;;;;4123058;28;20470;-63
2023/03/04 04:39:27;;;;;;;10.85;2.25;;;6.60;99.90;;;;;;4121603;28;20050;-63
2023/03/04 04:41:33;;;;;;;10.05;2.13;;;6.60;99.90;;;;;;4109664;28;20570;-63
2023/03/04 04:43:34;;;;;;;8.02;1.85;;;6.60;99.90;;;;;;4110934;28;20087;-63
2023/03/04 04:45:34;;;;;;;8.07;1.83;;;6.60;99.90;;;;;;4108777;28;20076;-63
2023/03/04 04:47:35;;;;;;;10.60;2.33;;;6.60;99.90;;;;;;4116253;28;20038;-63
2023/03/04 04:49:36;;;;;;;10.10;2.00;;;6.60;99.90;;;;;;4122074;28;20057;-62
2023/03/04 04:51:37;;;;;;;9.63;1.80;;;6.60;99.90;;;;;;4109793;28;20039;-63
2023/03/04 04:53:38;;;;;;;6.30;1.80;;;6.70;99.90;;;;;;4110872;28;20041;-63
2023/03/04 04:55:38;;;;;;;9.70;1.90;;;6.70;99.90;;;;;;4115131;28;20113;-64
2023/03/04 04:57:39;;;;;;;9.27;2.03;;;6.60;99.90;;;;;;4105026;28;20035;-63
2023/03/04 04:59:39;;;;;;;8.27;1.85;;;6.70;99.90;;;;;;4109838;28;20113;-63
2023/03/04 05:01:40;;;;;;;8.43;1.92;;;6.70;99.90;;;;;;4108424;28;20043;-63
2023/03/04 05:03:41;;;;;;;6.47;1.70;;;6.70;99.90;;;;;;4110110;28;20122;-63
2023/03/04 05:05:41;;;;;;;9.10;2.40;;;6.70;99.90;;;;;;4112155;28;20189;-63
2023/03/04 05:07:42;;;;;;;5.35;1.38;;;6.60;99.90;;;;;;4116213;28;20035;-63
2023/03/04 05:09:43;;;;;;;7.60;1.77;;;6.70;99.90;;;;;;4111685;28;20042;-63
2023/03/04 05:11:43;;;;;;;8.93;1.65;;;6.70;99.90;;;;;;4107948;28;20054;-63
2023/03/04 05:13:44;;;;;;;11.60;2.17;;;6.70;99.90;;;;;;4110827;28;20545;-63
2023/03/04 05:15:46;;;;;;;10.38;1.73;;;6.70;99.90;;;;;;4106627;28;20046;-63
2023/03/04 05:17:46;;;;;;;12.57;2.55;;;6.70;99.90;;;;;;4115610;28;20539;-63
2023/03/04 05:19:47;;;;;;;11.00;2.58;;;6.70;99.90;;;;;;4111450;28;20047;-63
2023/03/04 05:21:47;;;;;;;10.15;2.00;;;6.60;99.90;;;;;;4109425;28;20027;-63
2023/03/04 05:23:48;;;;;;;10.80;1.80;;;6.70;99.90;;;;;;4110731;28;20470;-63
2023/03/04 05:25:49;;;;;;;6.95;1.85;;;6.70;99.90;;;;;;4111169;28;20038;-63
2023/03/04 05:27:49;;;;;;;7.90;1.85;;;6.60;99.90;;;;;;4113579;28;20085;-63
2023/03/04 05:29:50;;;;;;;10.88;2.45;;;6.60;99.90;;;;;;4111455;28;21338;-63
2023/03/04 05:31:50;;;;;;;9.38;2.22;;;6.60;99.90;;;;;;4109677;28;20035;-63
2023/03/04 05:33:51;;;;;;;7.15;2.00;;;6.60;99.90;;;;;;4108858;28;20031;-63
2023/03/04 05:35:52;;;;;;;7.32;1.80;;;6.70;99.90;;;;;;4112490;28;20062;-63
2023/03/04 05:37:54;;;;;;;5.47;1.80;;;6.70;99.90;;;;;;4119745;28;20039;-63
2023/03/04 05:39:54;;;;;;;8.82;1.90;;;6.70;99.90;;;;;;4111206;28;20093;-63
2023/03/04 05:41:55;;;;;;;8.23;1.63;;;6.70;99.90;;;;;;4107714;28;20046;-63
2023/03/04 05:43:55;;;;;;;7.20;1.98;;;6.70;99.90;;;;;;4109772;28;20110;-64
2023/03/04 05:45:56;;;;;;;7.32;1.77;;;6.60;99.90;;;;;;4112709;28;20520;-63
2023/03/04 05:47:57;;;;;;;11.05;2.05;;;6.60;99.90;;;;;;4116476;28;20042;-63
2023/03/04 05:49:57;;;;;;;9.55;1.92;;;6.70;99.90;;;;;;4110219;28;20944;-63
2023/03/04 05:51:58;;;;;;;6.13;1.70;;;6.70;99.90;;;;;;4109416;28;20062;-63
2023/03/04 05:53:58;;;;;;;7.13;1.70;;;6.70;99.90;;;;;;4108922;28;20031;-63
2023/03/04 05:55:59;;;;;;;16.42;2.88;;;6.70;99.90;;;;;;4110760;28;20038;-63
2023/03/04 05:58:00;;;;;;;7.85;2.10;;;6.70;99.90;;;;;;4115134;28;20087;-63
2023/03/04 06:00:01;;;;;;;10.43;1.85;;;6.70;99.90;;;;;;4108549;28;20046;-63
2023/03/04 06:02:01;;;;;;;11.05;2.47;;;6.70;99.90;;;;;;4106213;28;20042;-63
2023/03/04 06:04:02;;;;;;;4.03;1.38;;;6.70;99.90;;;;;;4105766;28;20055;-63
2023/03/04 06:06:03;;;;;;;10.48;2.58;;;6.70;99.90;;;;;;4109638;28;20041;-63
2023/03/04 06:08:04;;;;;;;9.85;1.92;;;6.70;99.90;;;;;;4113165;28;20371;-63
2023/03/04 06:10:06;;;;;;;12.23;2.42;;;6.70;99.90;;;;;;4107729;28;20038;-64
2023/03/04 06:12:06;;;;;;;14.32;2.35;;;6.70;99.90;;;;;;4108067;28;20030;-63
2023/03/04 06:14:07;;;;;;;6.82;1.85;;;6.70;99.90;;;;;;4108604;28;20090;-63
2023/03/04 06:16:08;;;;;;;7.85;2.45;;;6.70;99.90;;;;;;4113438;28;20037;-63
2023/03/04 06:18:09;;;;;;;9.43;2.22;;;6.70;99.90;;;;;;4112229;28;20034;-63
2023/03/04 06:20:11;;;;;;;9.40;2.38;;;6.70;99.90;;;;;;4108097;28;20390;-63
2023/03/04 06:22:11;;;;;;;7.68;2.00;;;6.70;99.90;;;;;;4106709;28;20047;-63
2023/03/04 06:24:12;;;;;;;6.20;1.70;;;6.70;99.90;;;;;;4112079;28;20038;-63
2023/03/04 06:26:14;;;;;;;11.30;2.00;;;6.70;99.90;;;;;;4113206;28;20089;-63
2023/03/04 06:28:14;;;;;;;6.68;1.77;;;6.70;99.90;;;;;;4113931;28;20375;-63
2023/03/04 06:30:15;;;;;;;7.90;2.10;;;6.80;99.90;;;;;;4112749;28;20045;-63
2023/03/04 06:32:16;;;;;;;12.68;1.85;;;6.70;99.90;;;;;;4125550;28;20069;-63
2023/03/04 06:34:16;;;;;;;9.68;2.05;;;6.70;99.90;;;;;;4112401;28;20043;-63
2023/03/04 06:36:17;;;;;;;7.32;1.77;;;6.70;99.90;;;;;;4113120;28;20043;-63
2023/03/04 06:38:18;;;;;;;10.85;2.25;;;6.70;99.90;;;;;;4112790;28;20114;-63
2023/03/04 06:40:18;;;;;;;8.23;1.65;;;6.70;99.90;;;;;;4110910;28;20134;-63
2023/03/04 06:42:19;;;;;;;6.15;2.00;;;6.70;99.90;;;;;;4113374;28;20074;-63
2023/03/04 06:44:19;;;;;;;8.05;2.05;;;6.70;99.90;;;;;;4111955;28;20500;-63
2023/03/04 06:46:20;;;;;;;7.50;1.52;;;6.60;99.90;;;;;;4109724;28;20415;-65
2023/03/04 06:48:20;;;;;;;9.77;1.77;;;6.60;99.90;;;;;;4115537;28;20042;-65
2023/03/04 06:50:21;;;;;;;10.55;2.15;;;6.50;99.90;;;;;;4114729;28;20065;-65
2023/03/04 06:52:22;;;;;;;6.28;1.60;;;6.50;99.90;;;;;;4112163;28;20035;-65
2023/03/04 06:54:22;;;;;;;9.25;1.45;;;6.60;99.90;;;;;;4114471;28;20031;-65
2023/03/04 06:56:23;;;;;;;8.27;2.03;;;6.50;99.90;;;;;;4117565;28;20035;-65
2023/03/04 06:58:23;;;;;;;6.78;1.55;;;6.50;99.90;;;;;;4115914;28;20105;-65
2023/03/04 07:00:24;;;;;;;14.00;1.77;;;6.50;99.90;;;;;;4103423;28;20069;-65
2023/03/04 07:02:24;;;;;;;8.98;2.15;;;6.50;99.90;;;;;;4121160;28;20046;-65
2023/03/04 07:04:25;;;;;;;7.13;1.75;;;6.50;99.90;;;;;;4111281;28;20474;-65
2023/03/04 07:06:27;;;;;;;10.38;1.98;;;6.50;99.90;;;;;;4108086;28;20066;-64
2023/03/04 07:08:28;;;;;;;6.65;2.17;;;6.50;99.90;;;;;;4112213;28;20119;-65
2023/03/04 07:10:29;;;;;;;11.68;2.50;;;6.60;99.90;;;;;;4106170;28;20052;-64
2023/03/04 07:12:29;;;;;;;9.10;2.55;;;6.60;99.90;;;;;;4116076;28;20065;-65
2023/03/04 07:14:30;;;;;;;7.60;2.50;;;6.60;99.90;;;;;;4106037;28;20047;-65
2023/03/04 07:16:30;;;;;;;7.15;2.10;;;6.60;99.90;;;;;;4110186;28;20039;-66
2023/03/04 07:18:31;;;;;;;8.35;2.05;;;6.60;99.90;;;;;;4113085;28;20031;-65
2023/03/04 07:20:31;;;;;;;5.28;1.45;;;6.60;99.90;;;;;;4114738;28;20133;-65
2023/03/04 07:22:32;;;;;;;10.55;2.00;;;6.60;99.90;;;;;;4107087;28;20469;-65
2023/03/04 07:24:33;;;;;;;8.50;1.70;;;6.60;99.90;;;;;;4110839;28;20032;-65
2023/03/04 07:26:33;;;;;;;8.73;1.63;;;6.60;99.90;;;;;;4112965;28;20110;-65
2023/03/04 07:28:35;;;;;;;4.90;1.85;;;6.60;99.90;;;;;;4109702;28;20031;-66
2023/03/04 07:30:36;;;;;;;7.85;1.80;;;6.70;99.90;;;;;;4105758;28;20039;-65
2023/03/04 07:32:36;;;;;;;8.55;1.88;;;6.70;99.90;;;;;;4112098;28;20042;-64
2023/03/04 07:34:37;;;;;;;4.43;1.52;;;6.70;99.90;;;;;;4116684;28;20038;-65
2023/03/04 07:36:37;;;;;;;5.57;1.38;;;6.70;99.90;;;;;;4115218;28;20433;-65
2023/03/04 07:38:38;;;;;;;10.95;1.77;;;6.70;99.90;;;;;;4117549;28;20042;-64
2023/03/04 07:40:39;;;;;;;9.23;1.58;;;6.70;99.90;;;;;;4107656;28;20039;-64
2023/03/04 07:42:39;;;;;;;10.10;2.00;;;6.80;99.90;;;;;;4123372;28;20044;-64
2023/03/04 07:44:40;;;;;;;4.40;1.45;;;6.80;99.90;;;;;;4118142;28;20540;-67
2023/03/04 07:46:40;;;;;;;6.40;1.30;;;6.80;99.90;;;;;;4112142;28;20054;-65
2023/03/04 07:48:41;;;;;;;7.55;1.98;;;6.80;99.90;;;;;;4111211;28;20038;-65
2023/03/04 07:50:41;;;;;;;12.48;2.00;;;6.90;99.90;;;;;;4117376;28;20066;-65
2023/03/04 07:52:45;;;;;;;8.65;1.83;;;6.90;99.90;;;;;;4112528;28;20146;-65
2023/03/04 07:54:46;;;;;;;9.45;1.88;;;6.90;99.90;;;;;;4108300;28;20065;-65
2023/03/04 07:56:46;;;;;;;8.75;1.95;;;6.90;99.90;;;;;;4113122;28;20043;-65
2023/03/04 07:58:48;;;;;;;6.47;1.75;;;6.90;99.90;;;;;;4104791;28;20042;-65
2023/03/04 08:00:49;;;;;;;4.72;1.60;;;7.00;99.90;;;;;;4107693;28;20474;-65
2023/03/04 08:02:49;;;;;;;8.00;1.50;;;7.00;99.90;;;;;;4109301;28;20062;-65
2023/03/04 08:04:50;;;;;;;10.57;1.58;;;7.00;99.90;;;;;;4111597;28;20704;-65
2023/03/04 08:06:50;;;;;;;6.35;1.80;;;7.10;99.90;;;;;;4111915;28;20490;-65
2023/03/04 08:08:59;;;;;;;6.95;1.73;;;7.10;99.90;;;;;;4114350;28;20105;-65
2023/03/04 08:11:02;;;;;;;9.23;2.40;;;7.10;99.90;;;;;;4108404;28;20043;-65
2023/03/04 08:13:04;;;;;;;8.73;2.22;;;7.10;99.90;;;;;;4110449;28;20676;-65
2023/03/04 08:15:05;;;;;;;10.60;1.88;;;7.10;99.90;;;;;;4114828;28;20118;-66
2023/03/04 08:17:06;;;;;;;5.10;1.45;;;7.10;99.90;;;;;;4111106;28;20054;-64
2023/03/04 08:19:07;;;;;;;9.65;1.80;;;7.10;99.90;;;;;;4115279;28;20054;-64
2023/03/04 08:21:11;;;;;;;10.20;1.50;;;7.10;99.90;;;;;;4108912;28;20500;-64
2023/03/04 08:23:12;;;;;;;6.90;1.70;;;7.20;99.90;;;;;;4110337;28;20432;-65
2023/03/04 08:25:12;;;;;;;12.45;1.80;;;7.30;99.90;;;;;;4107356;28;20116;-64
2023/03/04 08:27:13;;;;;;;10.10;1.95;;;7.40;99.90;;;;;;4112711;28;20043;-64
2023/03/04 08:29:17;;;;;;;6.40;1.70;;;7.60;99.90;;;;;;4109105;28;20501;-65
2023/03/04 08:31:18;;;;;;;9.68;1.63;;;7.70;99.90;;;;;;4111936;28;20034;-64
2023/03/04 08:33:18;;;;;;;8.55;1.73;;;7.80;99.90;;;;;;4108995;28;20042;-65
2023/03/04 08:35:19;;;;;;;11.05;2.17;;;7.90;99.90;;;;;;4115533;28;20460;-65
2023/03/04 08:37:20;;;;;;;16.30;2.00;;;7.90;99.90;;;;;;4115180;28;20085;-65
2023/03/04 08:39:20;;;;;;;11.98;2.08;;;7.90;99.90;;;;;;4111183;28;20432;-64
2023/03/04 08:41:21;;;;;;;5.78;1.48;;;7.90;99.90;;;;;;4109994;28;20062;-65
2023/03/04 08:43:23;;;;;;;8.10;1.92;;;7.90;99.90;;;;;;4109560;28;20039;-65
2023/03/04 08:45:24;;;;;;;9.25;2.55;;;7.90;99.90;;;;;;4108854;28;20079;-64
2023/03/04 08:47:25;;;;;;;9.48;2.45;;;8.00;99.90;;;;;;4119144;28;20039;-65
2023/03/04 08:49:25;;;;;;;8.45;1.77;;;8.00;99.90;;;;;;4110100;28;20050;-64
2023/03/04 08:51:26;;;;;;;9.30;1.80;;;8.00;99.90;;;;;;4114136;28;20038;-65
2023/03/04 08:53:27;;;;;;;10.80;2.00;;;8.00;99.90;;;;;;4110108;28;20462;-64
2023/03/04 08:55:27;;;;;;;8.02;1.80;;;8.00;99.90;;;;;;4108688;28;20456;-65
2023/03/04 08:57:28;;;;;;;10.25;2.03;;;8.00;99.90;;;;;;4103027;28;20035;-65
2023/03/04 08:59:29;;;;;;;8.52;1.70;;;7.90;99.90;;;;;;4109856;28;20082;-65
2023/03/04 09:01:29;;;;;;;8.80;1.77;;;8.00;99.90;;;;;;4110109;28;20038;-65
2023/03/04 09:03:30;;;;;;;9.82;2.20;;;7.90;99.90;;;;;;4110560;28;20034;-64
2023/03/04 09:05:31;;;;;;;9.30;2.22;;;7.90;99.90;;;;;;4108593;28;21218;-65
2023/03/04 09:07:32;;;;;;;8.68;1.98;;;7.80;99.90;;;;;;4107421;28;20170;-65
2023/03/04 09:09:32;;;;;;;9.88;1.75;;;7.80;99.90;;;;;;4113065;28;20437;-64
2023/03/04 09:11:33;;;;;;;13.52;1.70;;;7.90;99.90;;;;;;4111863;28;20118;-65
2023/03/04 09:13:35;;;;;;;10.27;1.65;;;7.90;99.90;;;;;;4113455;28;20034;-64
2023/03/04 09:15:36;;;;;;;8.85;1.83;;;7.90;99.90;;;;;;4113444;28;20035;-64
2023/03/04 09:17:37;;;;;;;7.35;1.70;;;8.00;99.90;;;;;;4112302;28;20034;-65
2023/03/04 09:19:38;;;;;;;11.45;1.83;;;8.00;99.90;;;;;;4114164;28;20042;-65
2023/03/04 09:21:38;;;;;;;8.02;1.90;;;7.90;99.90;;;;;;4118234;28;20118;-64
2023/03/04 09:23:39;;;;;;;16.40;1.80;;;7.90;99.90;;;;;;4122372;28;20585;-64
2023/03/04 09:25:41;;;;;;;6.30;1.40;;;7.90;99.90;;;;;;4121543;28;20062;-64
2023/03/04 09:27:42;;;;;;;9.30;2.45;;;7.80;99.90;;;;;;4121393;28;20114;-65
2023/03/04 09:29:44;;;;;;;10.52;1.83;;;7.80;99.90;;;;;;4112263;28;20580;-65
2023/03/04 09:31:45;;;;;;;10.65;2.08;;;7.90;99.90;;;;;;4118239;28;20042;-65
2023/03/04 09:33:45;;;;;;;4.85;1.30;;;8.00;99.90;;;;;;4115087;28;20058;-64
2023/03/04 09:35:47;;;;;;;6.93;1.48;;;8.10;99.90;;;;;;4112282;28;20045;-64
2023/03/04 09:37:49;;;;;;;6.72;1.92;;;8.20;99.90;;;;;;4110658;28;20042;-64
2023/03/04 09:39:50;;;;;;;5.78;1.70;;;8.30;99.90;;;;;;4111748;28;20081;-65
2023/03/04 09:41:56;;;;;;;9.55;1.70;;;8.40;99.90;;;;;;4111620;28;20031;-64
2023/03/04 09:43:56;;;;;;;8.00;1.38;;;8.40;99.90;;;;;;4113513;28;20401;-64
2023/03/04 09:46:11;;;;;;;4.45;1.60;;;8.40;99.90;;;;;;4111836;28;20038;-64
2023/03/04 09:48:16;;;;;;;4.30;1.27;;;8.40;99.90;;;;;;4119884;28;20057;-65
2023/03/04 09:50:18;;;;;;;8.43;1.63;;;8.50;99.90;;;;;;4110388;28;20478;-64
2023/03/04 09:52:51;;;;;;;6.55;1.92;;;8.60;99.90;;;;;;4125239;28;20043;-64
2023/03/04 09:54:51;;;;;;;8.50;1.50;;;8.60;99.90;;;;;;4116653;28;20031;-64
2023/03/04 09:56:58;;;;;;;13.15;1.70;;;8.70;99.90;;;;;;4113046;28;20481;-64
2023/03/04 09:59:24;;;;;;;9.23;1.90;;;8.70;99.90;;;;;;4107270;28;20482;-65
2023/03/04 10:01:38;;;;;;;5.28;1.38;;;8.60;99.90;;;;;;4110112;28;20039;-64
2023/03/04 10:03:47;;;;;;;5.93;1.25;;;8.60;99.90;;;;;;4110316;28;20042;-64
2023/03/04 10:05:55;;;;;;;5.10;1.38;;;8.50;99.90;;;;;;4112424;28;20046;-64
2023/03/04 10:07:59;;;;;;;8.43;1.42;;;8.50;99.90;;;;;;4116787;28;20409;-64
2023/03/04 10:10:05;;;;;;;4.45;1.35;;;8.50;99.90;;;;;;4110352;28;20055;-65
2023/03/04 10:12:14;;;;;;;8.63;1.83;;;8.50;99.90;;;;;;4107836;28;20114;-65
2023/03/04 10:14:21;;;;;;;5.75;1.42;;;8.40;99.90;;;;;;4112879;28;20092;-65
2023/03/04 10:16:25;;;;;;;7.55;1.58;;;8.40;99.90;;;;;;4112088;28;20077;-64
2023/03/04 10:18:35;;;;;;;7.50;1.40;;;8.40;99.90;;;;;;4117262;28;20035;-64
2023/03/04 10:20:59;;;;;;;7.20;1.48;;;8.40;99.90;;;;;;4110673;28;20178;-64
2023/03/04 10:23:09;;;;;;;6.45;1.25;;;8.40;99.90;;;;;;4113500;28;20047;-65
2023/03/04 10:25:23;;;;;;;5.72;1.42;;;8.40;99.90;;;;;;4110933;28;20039;-65
2023/03/04 10:27:24;;;;;;;9.30;1.60;;;8.50;99.90;;;;;;4122213;28;20401;-64
2023/03/04 10:29:25;;;;;;;8.75;1.38;;;8.50;99.90;;;;;;4114070;28;20462;-64
2023/03/04 10:31:35;;;;;;;5.30;1.13;;;8.50;99.90;;;;;;4106517;28;20041;-64
2023/03/04 10:33:38;;;;;;;4.55;1.30;;;8.60;99.90;;;;;;4125023;28;20044;-64
2023/03/04 10:35:42;;;;;;;5.30;1.10;;;8.60;99.90;;;;;;4113926;28;20039;-64
2023/03/04 10:37:49;;;;;;;4.05;1.17;;;8.70;99.90;;;;;;4119912;28;20047;-65